Time;durP1;ratioP1;P1;durP2;ratioP2;P2;SDS_P1;SDS_P2;PMS_P1;PMS_P2;Temp;Humidity;BMP_temperature;BMP_pressure;BME280_temperature;BME280_humidity;BME280_pressure;Samples;Min_cycle;Max_cycle;Signal;HPM_P1;HPM_P2
2022/06/07 00:02:13;;;;;;;1.40;1.30;;;;;;;;;;5023190;28;20207;-83
2022/06/07 00:04:39;;;;;;;1.45;1.35;;;;;;;;;;5017673;28;20194;-84
2022/06/07 00:07:06;;;;;;;1.40;1.30;;;;;;;;;;5024340;28;20213;-84
2022/06/07 00:09:32;;;;;;;1.70;1.40;;;;;;;;;;5021518;28;20343;-84
2022/06/07 00:11:58;;;;;;;1.67;1.35;;;;;;;;;;5037517;28;20664;-84
2022/06/07 00:14:24;;;;;;;2.08;1.50;;;;;;;;;;5022557;28;20633;-83
2022/06/07 00:16:51;;;;;;;1.20;1.10;;;;;;;;;;5031908;28;20285;-83
2022/06/07 00:19:17;;;;;;;3.83;1.38;;;;;;;;;;5029295;28;20194;-84
2022/06/07 00:21:43;;;;;;;2.63;1.50;;;;;;;;;;5030409;28;20183;-83
2022/06/07 00:24:09;;;;;;;1.40;1.30;;;;;;;;;;5024367;28;20189;-83
2022/06/07 00:26:38;;;;;;;2.35;1.33;;;;;;;;;;5021509;28;20293;-86
2022/06/07 00:29:04;;;;;;;3.05;1.60;;;;;;;;;;5027320;28;20581;-84
2022/06/07 00:31:30;;;;;;;6.38;1.70;;;;;;;;;;5023175;28;20206;-83
2022/06/07 00:33:56;;;;;;;1.70;1.30;;;;;;;;;;5017550;28;20201;-85
2022/06/07 00:36:22;;;;;;;2.75;1.30;;;;;;;;;;5023659;28;20212;-84
2022/06/07 00:38:48;;;;;;;1.48;1.25;;;;;;;;;;5024286;28;20179;-85
2022/06/07 00:41:14;;;;;;;2.00;1.45;;;;;;;;;;5021494;28;20197;-86
2022/06/07 00:43:42;;;;;;;4.00;1.58;;;;;;;;;;5029234;28;20187;-86
2022/06/07 00:46:10;;;;;;;3.50;1.25;;;;;;;;;;5038386;28;20612;-86
2022/06/07 00:48:36;;;;;;;3.25;1.60;;;;;;;;;;5024991;28;20185;-86
2022/06/07 00:51:04;;;;;;;2.78;1.67;;;;;;;;;;5036160;28;20702;-84
2022/06/07 00:53:32;;;;;;;1.70;1.60;;;;;;;;;;5031151;28;20174;-84
2022/06/07 00:55:59;;;;;;;5.00;1.73;;;;;;;;;;5033976;28;20598;-83
2022/06/07 00:58:26;;;;;;;3.95;1.70;;;;;;;;;;5026813;28;20281;-84
2022/06/07 01:00:53;;;;;;;2.80;1.40;;;;;;;;;;5027455;28;20243;-85
2022/06/07 01:03:20;;;;;;;1.67;1.58;;;;;;;;;;5029396;28;20187;-83
2022/06/07 01:05:47;;;;;;;4.85;1.67;;;;;;;;;;5019464;28;20182;-84
2022/06/07 01:10:57;;;;;;;2.40;1.70;;;;;;;;;;5031133;28;21000;-84
2022/06/07 01:13:27;;;;;;;1.80;1.52;;;;;;;;;;5026916;28;20189;-84
2022/06/07 01:15:57;;;;;;;2.50;1.75;;;;;;;;;;5027652;28;20497;-85
2022/06/07 01:18:23;;;;;;;2.67;1.60;;;;;;;;;;5029384;28;20228;-83
2022/06/07 01:21:28;;;;;;;3.20;2.10;;;;;;;;;;5027484;28;20442;-83
2022/06/07 01:23:54;;;;;;;3.75;1.83;;;;;;;;;;4937591;29;20189;-83
2022/06/07 01:26:21;;;;;;;3.83;2.07;;;;;;;;;;4938926;29;20214;-83
2022/06/07 01:28:47;;;;;;;3.67;2.10;;;;;;;;;;4982934;28;20678;-84
2022/06/07 01:31:13;;;;;;;2.77;1.97;;;;;;;;;;5012280;28;20293;-84
2022/06/07 01:33:39;;;;;;;2.83;2.00;;;;;;;;;;5029380;28;20531;-83
2022/06/07 01:36:06;;;;;;;1.97;1.83;;;;;;;;;;5038651;28;20205;-83
2022/06/07 01:38:33;;;;;;;2.20;1.97;;;;;;;;;;5024621;28;20191;-83
2022/06/07 01:43:44;;;;;;;4.67;2.20;;;;;;;;;;5033326;28;20248;-84
2022/06/07 01:46:10;;;;;;;3.67;2.00;;;;;;;;;;5016035;28;20210;-85
2022/06/07 01:48:36;;;;;;;5.37;2.23;;;;;;;;;;5025744;28;20241;-82
2022/06/07 01:51:03;;;;;;;5.30;2.20;;;;;;;;;;5026866;28;20618;-84
2022/06/07 01:53:29;;;;;;;4.70;2.30;;;;;;;;;;5013258;28;20439;-83
2022/06/07 01:56:02;;;;;;;4.50;2.70;;;;;;;;;;5015934;28;20206;-83
2022/06/07 01:58:28;;;;;;;3.90;2.30;;;;;;;;;;5008788;28;20194;-83
2022/06/07 02:00:54;;;;;;;8.13;2.90;;;;;;;;;;5015910;28;20276;-84
2022/06/07 02:03:20;;;;;;;3.73;2.30;;;;;;;;;;5025625;28;20273;-83
2022/06/07 02:06:00;;;;;;;4.53;2.80;;;;;;;;;;5024882;28;20662;-83
2022/06/07 02:08:26;;;;;;;3.87;2.70;;;;;;;;;;5025097;28;20206;-83
2022/06/07 02:10:52;;;;;;;3.80;2.53;;;;;;;;;;5017966;28;20664;-85
2022/06/07 02:13:19;;;;;;;3.53;2.83;;;;;;;;;;5026173;28;20516;-82
2022/06/07 02:15:45;;;;;;;3.00;2.37;;;;;;;;;;5018737;28;20202;-83
2022/06/07 02:18:11;;;;;;;3.27;2.77;;;;;;;;;;5031457;28;20186;-82
2022/06/07 02:20:37;;;;;;;3.10;2.70;;;;;;;;;;5024176;28;20178;-83
2022/06/07 02:23:03;;;;;;;2.73;2.50;;;;;;;;;;5024048;28;20190;-83
2022/06/07 02:25:30;;;;;;;2.50;2.30;;;;;;;;;;5008046;28;20631;-84
2022/06/07 02:27:56;;;;;;;3.90;2.40;;;;;;;;;;5009990;28;20764;-83
2022/06/07 02:30:22;;;;;;;5.17;2.50;;;;;;;;;;5013449;28;20646;-83
2022/06/07 02:32:48;;;;;;;3.07;2.50;;;;;;;;;;5023024;28;20211;-83
2022/06/07 02:35:14;;;;;;;3.73;2.47;;;;;;;;;;5017521;28;20969;-83
2022/06/07 02:37:40;;;;;;;4.37;2.70;;;;;;;;;;5008270;28;20207;-83
2022/06/07 02:40:07;;;;;;;4.63;2.60;;;;;;;;;;5024617;28;20209;-85
2022/06/07 02:42:33;;;;;;;5.53;2.70;;;;;;;;;;5023516;28;20190;-83
2022/06/07 02:44:59;;;;;;;2.67;2.47;;;;;;;;;;5009163;28;20739;-83
2022/06/07 02:47:25;;;;;;;5.47;2.77;;;;;;;;;;5029715;28;20209;-83
2022/06/07 02:49:52;;;;;;;3.83;2.57;;;;;;;;;;5025686;28;20185;-84
2022/06/07 02:52:18;;;;;;;2.70;2.50;;;;;;;;;;5025442;28;20228;-84
2022/06/07 02:54:44;;;;;;;3.47;2.47;;;;;;;;;;5035648;28;20187;-84
2022/06/07 02:57:10;;;;;;;3.70;2.10;;;;;;;;;;5009761;28;20203;-84
2022/06/07 02:59:36;;;;;;;3.80;2.17;;;;;;;;;;5023067;28;20217;-83
2022/06/07 03:02:02;;;;;;;3.73;2.07;;;;;;;;;;5023052;28;20194;-84
2022/06/07 03:04:28;;;;;;;4.23;2.40;;;;;;;;;;5010030;28;20259;-84
2022/06/07 03:06:54;;;;;;;3.60;2.67;;;;;;;;;;5025377;28;20672;-84
2022/06/07 03:09:20;;;;;;;5.20;2.53;;;;;;;;;;5022117;28;20293;-83
2022/06/07 03:11:46;;;;;;;4.37;2.50;;;;;;;;;;5017229;28;20289;-83
2022/06/07 03:14:12;;;;;;;3.40;2.47;;;;;;;;;;5027327;28;20701;-84
2022/06/07 03:16:38;;;;;;;3.28;2.97;;;;;;;;;;5023672;28;20583;-84
2022/06/07 03:19:04;;;;;;;3.00;2.70;;;;;;;;;;5025110;28;20281;-84
2022/06/07 03:21:30;;;;;;;3.50;2.70;;;;;;;;;;5023015;28;20277;-83
2022/06/07 03:23:56;;;;;;;4.00;2.60;;;;;;;;;;5023197;28;20293;-84
2022/06/07 03:26:22;;;;;;;3.90;2.55;;;;;;;;;;5010136;28;20213;-84
2022/06/07 03:28:49;;;;;;;3.88;2.72;;;;;;;;;;5008017;28;20716;-83
2022/06/07 03:31:15;;;;;;;2.95;2.75;;;;;;;;;;5013672;28;20237;-84
2022/06/07 03:33:44;;;;;;;3.38;2.45;;;;;;;;;;5024510;28;20708;-83
2022/06/07 03:36:16;;;;;;;4.65;2.65;;;;;;;;;;5034217;28;20598;-84
2022/06/07 03:38:42;;;;;;;4.70;2.83;;;;;;;;;;5008965;28;20209;-85
2022/06/07 03:41:09;;;;;;;4.13;2.90;;;;;;;;;;5025027;28;20194;-85
2022/06/07 03:43:35;;;;;;;3.13;2.80;;;;;;;;;;5028687;28;20191;-83
2022/06/07 03:46:08;;;;;;;2.95;2.45;;;;;;;;;;5032560;28;20216;-85
2022/06/07 03:48:34;;;;;;;3.40;2.53;;;;;;;;;;5022378;28;20193;-84
2022/06/07 03:51:00;;;;;;;3.50;2.70;;;;;;;;;;5016019;28;20210;-85
2022/06/07 03:53:25;;;;;;;3.83;2.63;;;;;;;;;;5021946;28;20278;-85
2022/06/07 03:55:53;;;;;;;3.10;2.75;;;;;;;;;;5029878;28;20226;-84
2022/06/07 03:58:19;;;;;;;3.10;2.57;;;;;;;;;;5023689;28;20680;-86
2022/06/07 04:00:45;;;;;;;3.30;2.67;;;;;;;;;;5030209;28;20297;-82
2022/06/07 04:03:12;;;;;;;3.00;2.30;;;;;;;;;;5024873;28;20305;-83
2022/06/07 04:05:41;;;;;;;3.27;2.80;;;;;;;;;;5023236;28;20649;-83
2022/06/07 04:08:10;;;;;;;4.25;2.70;;;;;;;;;;5024466;28;20193;-83
2022/06/07 04:10:36;;;;;;;3.50;2.77;;;;;;;;;;5026716;28;20183;-83
2022/06/07 04:13:02;;;;;;;4.93;2.80;;;;;;;;;;5024541;28;20220;-83
2022/06/07 04:15:29;;;;;;;2.73;2.50;;;;;;;;;;5022678;28;20197;-83
2022/06/07 04:17:55;;;;;;;4.00;2.57;;;;;;;;;;5016016;28;20210;-85
2022/06/07 04:20:21;;;;;;;4.50;2.60;;;;;;;;;;5025164;28;20193;-85
2022/06/07 04:22:47;;;;;;;5.27;3.00;;;;;;;;;;5040278;28;20192;-84
2022/06/07 04:25:13;;;;;;;3.00;2.70;;;;;;;;;;5028204;28;20190;-83
2022/06/07 04:27:39;;;;;;;4.13;2.67;;;;;;;;;;5034366;28;20213;-84
2022/06/07 04:30:06;;;;;;;2.78;2.58;;;;;;;;;;5017158;28;20190;-84
2022/06/07 04:32:32;;;;;;;4.57;2.67;;;;;;;;;;5026002;28;20300;-84
2022/06/07 04:34:58;;;;;;;4.30;2.60;;;;;;;;;;5022502;28;20236;-84
2022/06/07 04:37:24;;;;;;;4.78;3.15;;;;;;;;;;5029961;28;20203;-84
2022/06/07 04:39:50;;;;;;;5.60;2.92;;;;;;;;;;5027931;28;20240;-84
2022/06/07 04:42:16;;;;;;;4.88;3.33;;;;;;;;;;5017847;28;20188;-84
2022/06/07 04:44:42;;;;;;;4.60;3.25;;;;;;;;;;5017616;28;20649;-82
2022/06/07 04:47:08;;;;;;;3.88;3.40;;;;;;;;;;5025120;28;20307;-85
2022/06/07 04:49:35;;;;;;;4.07;3.70;;;;;;;;;;5013693;28;20263;-84
2022/06/07 04:52:01;;;;;;;4.43;3.33;;;;;;;;;;5017150;28;20213;-83
2022/06/07 04:54:27;;;;;;;3.70;3.15;;;;;;;;;;5034197;28;20190;-86
2022/06/07 04:56:55;;;;;;;3.10;2.85;;;;;;;;;;5014646;28;20198;-83
2022/06/07 04:59:21;;;;;;;3.80;1.88;;;;;;;;;;5026197;28;20644;-84
2022/06/07 05:01:47;;;;;;;2.88;1.70;;;;;;;;;;5016134;28;20180;-84
2022/06/07 05:04:13;;;;;;;1.45;1.35;;;;;;;;;;5028152;28;20186;-84
2022/06/07 05:06:40;;;;;;;1.48;1.35;;;;;;;;;;5027608;28;20271;-84
2022/06/07 05:09:09;;;;;;;1.50;1.40;;;;;;;;;;5032202;28;20498;-85
2022/06/07 05:11:35;;;;;;;2.00;1.10;;;;;;;;;;5024657;28;20910;-85
2022/06/07 05:14:03;;;;;;;2.60;1.35;;;;;;;;;;5012918;28;20274;-83
2022/06/07 05:16:29;;;;;;;1.60;1.23;;;;;;;;;;5034726;28;20222;-84
2022/06/07 05:18:55;;;;;;;1.50;1.35;;;;;;;;;;5026253;28;20363;-84
2022/06/07 05:21:22;;;;;;;1.80;1.10;;;;;;;;;;5026376;28;20186;-84
2022/06/07 05:23:49;;;;;;;1.85;1.50;;;;;;;;;;5035938;28;20183;-84
2022/06/07 05:26:37;;;;;;;2.13;1.30;;;;;;;;;;5031534;28;20210;-84
2022/06/07 05:29:04;;;;;;;2.53;1.30;;;;;;;;;;5011872;28;20218;-84
2022/06/07 05:31:30;;;;;;;2.58;1.30;;;;;;;;;;5015186;28;20214;-86
2022/06/07 05:33:56;;;;;;;3.08;1.13;;;;;;;;;;5024439;28;20190;-84
2022/06/07 05:36:22;;;;;;;3.45;1.17;;;;;;;;;;5035412;28;20199;-85
2022/06/07 05:38:48;;;;;;;1.00;0.90;;;;;;;;;;5034507;28;20189;-84
2022/06/07 05:41:17;;;;;;;1.00;0.90;;;;;;;;;;5025108;28;20719;-86
2022/06/07 05:43:43;;;;;;;1.60;0.85;;;;;;;;;;5025985;28;20189;-84
2022/06/07 05:46:09;;;;;;;0.80;0.80;;;;;;;;;;5025034;28;20211;-84
2022/06/07 05:48:35;;;;;;;1.25;1.00;;;;;;;;;;5024375;28;20237;-84
2022/06/07 05:51:01;;;;;;;0.80;0.80;;;;;;;;;;5025069;28;20557;-84
2022/06/07 05:53:27;;;;;;;2.85;1.30;;;;;;;;;;5009069;28;20214;-85
2022/06/07 05:55:54;;;;;;;0.95;0.82;;;;;;;;;;5018306;28;20198;-84
2022/06/07 05:58:20;;;;;;;2.08;1.00;;;;;;;;;;5014720;28;20175;-85
2022/06/07 06:00:46;;;;;;;2.40;0.98;;;;;;;;;;5013733;28;20649;-84
2022/06/07 06:03:13;;;;;;;1.85;1.00;;;;;;;;;;5027122;28;20213;-85
2022/06/07 06:05:44;;;;;;;1.77;0.90;;;;;;;;;;5026282;28;20295;-84
2022/06/07 06:11:11;;;;;;;2.08;1.10;;;;;;;;;;5034338;28;20573;-84
2022/06/07 06:13:37;;;;;;;1.15;1.00;;;;;;;;;;5031980;28;20849;-84
2022/06/07 06:16:10;;;;;;;1.85;1.00;;;;;;;;;;5026399;28;20198;-84
2022/06/07 06:18:37;;;;;;;1.35;0.90;;;;;;;;;;5026108;28;20182;-84
2022/06/07 06:21:03;;;;;;;1.20;1.10;;;;;;;;;;5026534;28;20186;-85
2022/06/07 06:23:30;;;;;;;2.00;1.05;;;;;;;;;;5036399;28;20170;-85
2022/06/07 06:25:56;;;;;;;1.67;1.10;;;;;;;;;;5024419;28;20272;-84
2022/06/07 06:28:22;;;;;;;1.27;1.17;;;;;;;;;;5031730;28;20183;-84
2022/06/07 06:30:48;;;;;;;1.90;1.00;;;;;;;;;;5013901;28;20182;-84
2022/06/07 06:33:15;;;;;;;1.25;0.88;;;;;;;;;;5023210;28;20187;-84
2022/06/07 06:35:47;;;;;;;2.35;1.10;;;;;;;;;;5018965;28;20170;-84
2022/06/07 06:38:14;;;;;;;2.17;1.17;;;;;;;;;;5024897;28;20656;-84
2022/06/07 06:40:41;;;;;;;3.58;1.02;;;;;;;;;;5018970;28;20711;-84
2022/06/07 06:43:07;;;;;;;2.58;1.10;;;;;;;;;;5023463;28;20190;-84
2022/06/07 06:45:33;;;;;;;1.25;0.70;;;;;;;;;;5017583;28;20213;-85
2022/06/07 06:48:01;;;;;;;1.15;0.75;;;;;;;;;;5013737;28;20222;-84
2022/06/07 06:50:27;;;;;;;1.95;0.80;;;;;;;;;;5023591;28;20190;-85
2022/06/07 06:52:53;;;;;;;1.95;0.90;;;;;;;;;;5035144;28;20267;-84
2022/06/07 06:55:19;;;;;;;1.35;0.82;;;;;;;;;;5032039;28;20446;-84
2022/06/07 06:57:47;;;;;;;1.27;0.70;;;;;;;;;;5012603;28;20614;-86
2022/06/07 07:00:13;;;;;;;2.28;0.73;;;;;;;;;;5026751;28;20183;-85
2022/06/07 07:02:39;;;;;;;1.90;0.50;;;;;;;;;;5026283;28;20183;-83
2022/06/07 07:05:05;;;;;;;1.63;0.70;;;;;;;;;;5010713;28;20670;-86
2022/06/07 07:07:31;;;;;;;2.15;0.80;;;;;;;;;;5013320;28;20203;-85
2022/06/07 07:09:57;;;;;;;1.60;0.60;;;;;;;;;;5010817;28;20210;-84
2022/06/07 07:12:23;;;;;;;1.00;0.50;;;;;;;;;;5034239;28;20578;-84
2022/06/07 07:14:49;;;;;;;2.60;0.50;;;;;;;;;;5032531;28;20178;-84
2022/06/07 07:17:15;;;;;;;1.48;0.50;;;;;;;;;;5022080;28;20581;-85
2022/06/07 07:19:41;;;;;;;0.98;0.60;;;;;;;;;;5022984;28;20175;-83
2022/06/07 07:22:07;;;;;;;1.05;0.50;;;;;;;;;;5022357;28;20289;-85
2022/06/07 07:24:33;;;;;;;1.20;0.70;;;;;;;;;;5029689;28;20365;-84
2022/06/07 07:27:00;;;;;;;1.65;0.73;;;;;;;;;;5014293;28;20206;-84
2022/06/07 07:29:26;;;;;;;1.00;0.60;;;;;;;;;;5022507;28;20563;-83
2022/06/07 07:31:52;;;;;;;2.25;0.82;;;;;;;;;;5030916;28;20206;-85
2022/06/07 07:34:18;;;;;;;0.95;0.70;;;;;;;;;;5024595;28;20182;-84
2022/06/07 07:36:49;;;;;;;0.80;0.55;;;;;;;;;;5023217;28;20428;-83
2022/06/07 07:39:15;;;;;;;3.20;0.65;;;;;;;;;;5028421;28;20190;-84
2022/06/07 07:41:42;;;;;;;1.92;0.70;;;;;;;;;;5025113;28;20558;-83
2022/06/07 07:44:11;;;;;;;0.60;0.60;;;;;;;;;;5029122;28;20248;-85
2022/06/07 07:46:38;;;;;;;0.88;0.70;;;;;;;;;;5031262;28;20285;-83
2022/06/07 07:49:05;;;;;;;1.70;0.60;;;;;;;;;;5022957;28;20198;-83
2022/06/07 07:51:36;;;;;;;0.75;0.57;;;;;;;;;;5024769;28;20209;-84
2022/06/07 07:54:03;;;;;;;1.92;0.70;;;;;;;;;;5032679;28;20186;-84
2022/06/07 07:56:29;;;;;;;1.20;0.73;;;;;;;;;;5024847;28;20210;-85
2022/06/07 07:58:55;;;;;;;1.10;0.68;;;;;;;;;;5021873;28;20186;-85
2022/06/07 08:01:23;;;;;;;2.15;0.80;;;;;;;;;;5027572;28;20683;-83
2022/06/07 08:03:49;;;;;;;0.82;0.82;;;;;;;;;;5024337;28;20781;-83
2022/06/07 08:06:17;;;;;;;1.15;0.70;;;;;;;;;;5023330;28;20268;-83
2022/06/07 08:08:44;;;;;;;0.93;0.80;;;;;;;;;;5020100;28;20197;-83
2022/06/07 08:11:10;;;;;;;2.20;0.82;;;;;;;;;;5023095;28;20312;-84
2022/06/07 08:13:39;;;;;;;0.88;0.65;;;;;;;;;;5010754;28;20211;-84
2022/06/07 08:16:08;;;;;;;0.88;0.70;;;;;;;;;;5034651;28;20577;-83
2022/06/07 08:18:35;;;;;;;1.15;0.63;;;;;;;;;;5021149;28;20329;-83
2022/06/07 08:21:02;;;;;;;0.82;0.52;;;;;;;;;;5015578;28;20193;-85
2022/06/07 08:23:28;;;;;;;1.42;0.70;;;;;;;;;;5027948;28;20213;-85
2022/06/07 08:25:59;;;;;;;1.90;0.68;;;;;;;;;;5023738;28;20579;-84
2022/06/07 08:28:25;;;;;;;0.65;0.63;;;;;;;;;;5023354;28;20179;-84
2022/06/07 08:30:52;;;;;;;0.70;0.63;;;;;;;;;;5035136;28;20187;-84
2022/06/07 08:38:56;;;;;;;1.00;0.60;;;;;;;;;;5028439;28;20282;-85
2022/06/07 08:41:24;;;;;;;0.68;0.60;;;;;;;;;;5027814;28;20183;-83
2022/06/07 08:43:50;;;;;;;1.63;0.50;;;;;;;;;;5028678;28;20260;-84
2022/06/07 08:46:17;;;;;;;2.17;0.80;;;;;;;;;;5035846;28;20202;-83
2022/06/07 08:48:43;;;;;;;1.17;0.70;;;;;;;;;;5022372;28;20565;-84
2022/06/07 08:51:09;;;;;;;1.67;0.60;;;;;;;;;;5031425;28;20193;-84
2022/06/07 08:53:37;;;;;;;0.88;0.70;;;;;;;;;;5022275;28;20175;-84
2022/06/07 08:56:06;;;;;;;2.30;0.85;;;;;;;;;;5024518;28;20230;-83
2022/06/07 08:58:37;;;;;;;0.88;0.60;;;;;;;;;;5022455;28;20640;-84
2022/06/07 09:01:15;;;;;;;1.55;0.50;;;;;;;;;;5023327;28;20282;-84
2022/06/07 09:04:02;;;;;;;1.48;0.60;;;;;;;;;;5031352;28;20608;-84
2022/06/07 09:06:32;;;;;;;0.75;0.52;;;;;;;;;;5023024;28;20210;-84
2022/06/07 09:08:59;;;;;;;2.50;0.82;;;;;;;;;;5028057;28;20202;-84
2022/06/07 09:14:19;;;;;;;1.92;0.82;;;;;;;;;;5031647;28;20272;-84
2022/06/07 09:16:45;;;;;;;0.40;0.40;;;;;;;;;;5019923;28;20260;-83
2022/06/07 09:19:12;;;;;;;0.70;0.50;;;;;;;;;;5011517;28;20186;-85
2022/06/07 09:21:39;;;;;;;3.08;0.55;;;;;;;;;;5036245;28;20182;-85
2022/06/07 09:24:10;;;;;;;1.00;0.60;;;;;;;;;;5026316;28;20268;-84
2022/06/07 09:26:37;;;;;;;0.47;0.43;;;;;;;;;;5024071;28;20221;-84
2022/06/07 09:29:09;;;;;;;1.38;0.50;;;;;;;;;;5033873;28;20645;-85
2022/06/07 09:31:38;;;;;;;0.40;0.40;;;;;;;;;;5024156;28;20676;-83
2022/06/07 09:34:05;;;;;;;0.70;0.70;;;;;;;;;;5024419;28;20672;-84
2022/06/07 09:36:43;;;;;;;1.77;0.50;;;;;;;;;;5029014;28;20211;-84
2022/06/07 09:39:18;;;;;;;0.40;0.40;;;;;;;;;;5037256;28;20182;-85
2022/06/07 09:41:47;;;;;;;0.95;0.52;;;;;;;;;;5026594;28;20531;-84
2022/06/07 09:44:13;;;;;;;1.23;0.50;;;;;;;;;;5037012;28;20186;-84
2022/06/07 09:46:41;;;;;;;1.00;0.60;;;;;;;;;;5027304;28;20581;-84
2022/06/07 09:49:07;;;;;;;1.33;0.60;;;;;;;;;;5024037;28;20201;-83
2022/06/07 09:51:39;;;;;;;0.82;0.47;;;;;;;;;;5032202;28;20211;-86
2022/06/07 09:54:14;;;;;;;0.60;0.60;;;;;;;;;;5035663;28;20183;-85
2022/06/07 09:56:43;;;;;;;0.93;0.60;;;;;;;;;;5035961;28;20194;-85
2022/06/07 09:59:28;;;;;;;0.55;0.40;;;;;;;;;;5026964;28;20182;-86
2022/06/07 10:02:06;;;;;;;0.73;0.57;;;;;;;;;;5040552;28;20193;-86
2022/06/07 10:04:32;;;;;;;0.63;0.50;;;;;;;;;;5024156;28;20542;-84
2022/06/07 10:07:00;;;;;;;0.85;0.45;;;;;;;;;;5015303;28;20226;-84
2022/06/07 10:09:29;;;;;;;1.38;0.52;;;;;;;;;;5025374;28;20213;-85
2022/06/07 10:12:02;;;;;;;0.60;0.60;;;;;;;;;;5024432;28;20675;-84
2022/06/07 10:14:31;;;;;;;1.10;0.70;;;;;;;;;;5024296;28;20270;-86
2022/06/07 10:17:03;;;;;;;1.25;0.50;;;;;;;;;;5023868;28;20313;-88
2022/06/07 10:19:33;;;;;;;0.73;0.30;;;;;;;;;;5008208;28;20194;-88
2022/06/07 10:22:06;;;;;;;1.52;0.50;;;;;;;;;;5038635;28;20274;-86
2022/06/07 10:24:31;;;;;;;0.60;0.50;;;;;;;;;;5023989;28;20186;-83
2022/06/07 10:27:11;;;;;;;2.60;0.65;;;;;;;;;;5023388;28;20230;-85
2022/06/07 10:29:40;;;;;;;1.67;0.50;;;;;;;;;;5032740;28;20178;-84
2022/06/07 10:32:17;;;;;;;1.17;0.70;;;;;;;;;;5030299;28;20629;-85
2022/06/07 10:34:55;;;;;;;1.13;0.60;;;;;;;;;;5022899;28;20179;-85
2022/06/07 10:37:25;;;;;;;1.10;0.57;;;;;;;;;;5024997;28;20423;-85
2022/06/07 10:39:59;;;;;;;1.63;0.65;;;;;;;;;;5034455;28;20431;-84
2022/06/07 10:42:41;;;;;;;0.95;0.60;;;;;;;;;;5023589;28;20277;-84
2022/06/07 10:45:11;;;;;;;1.00;0.63;;;;;;;;;;5024883;28;20265;-84
2022/06/07 10:47:58;;;;;;;0.50;0.50;;;;;;;;;;5032440;28;20203;-84
2022/06/07 10:50:43;;;;;;;0.77;0.60;;;;;;;;;;4999946;28;20194;-84
2022/06/07 10:53:15;;;;;;;1.30;0.50;;;;;;;;;;5021495;28;20221;-86
2022/06/07 10:55:48;;;;;;;1.33;0.60;;;;;;;;;;5015832;28;20301;-85
2022/06/07 10:58:17;;;;;;;0.65;0.60;;;;;;;;;;5026002;28;20182;-85
2022/06/07 11:00:46;;;;;;;1.20;0.50;;;;;;;;;;5020837;28;20181;-85
2022/06/07 11:03:28;;;;;;;1.30;0.60;;;;;;;;;;5027923;28;20190;-86
2022/06/07 11:11:43;;;;;;;0.65;0.50;;;;;;;;;;5033778;28;20580;-83
2022/06/07 11:14:28;;;;;;;0.57;0.40;;;;;;;;;;5029595;28;20237;-84
2022/06/07 11:17:01;;;;;;;0.60;0.60;;;;;;;;;;5031696;28;20209;-85
2022/06/07 11:19:27;;;;;;;0.98;0.70;;;;;;;;;;5024497;28;20194;-84
2022/06/07 11:21:57;;;;;;;1.10;0.55;;;;;;;;;;5039034;28;20186;-84
2022/06/07 11:24:28;;;;;;;0.43;0.43;;;;;;;;;;5022222;28;20572;-84
2022/06/07 11:26:54;;;;;;;1.83;0.57;;;;;;;;;;5036215;28;20201;-84
2022/06/07 11:29:25;;;;;;;0.93;0.55;;;;;;;;;;5023973;28;20595;-84
2022/06/07 11:31:51;;;;;;;1.02;0.55;;;;;;;;;;5025166;28;20198;-85
2022/06/07 11:34:28;;;;;;;1.65;0.60;;;;;;;;;;5024799;28;20179;-85
2022/06/07 11:37:09;;;;;;;0.57;0.55;;;;;;;;;;5017010;28;20252;-83
2022/06/07 11:39:38;;;;;;;0.70;0.70;;;;;;;;;;5027241;28;20217;-85
2022/06/07 11:42:07;;;;;;;0.60;0.60;;;;;;;;;;5025149;28;20190;-85
2022/06/07 11:44:36;;;;;;;1.08;0.60;;;;;;;;;;5024769;28;20733;-85
2022/06/07 11:47:08;;;;;;;0.70;0.60;;;;;;;;;;5021396;28;20602;-85
2022/06/07 11:49:46;;;;;;;0.50;0.43;;;;;;;;;;5021268;28;20190;-83
2022/06/07 11:52:12;;;;;;;0.55;0.55;;;;;;;;;;5021056;28;20261;-85
2022/06/07 11:54:45;;;;;;;1.13;0.45;;;;;;;;;;5010408;28;20549;-85
2022/06/07 11:57:27;;;;;;;0.45;0.40;;;;;;;;;;5027608;28;20490;-85
2022/06/07 11:59:55;;;;;;;1.00;0.40;;;;;;;;;;5021415;28;20183;-85
2022/06/07 12:02:32;;;;;;;0.63;0.40;;;;;;;;;;5023726;28;21046;-85
2022/06/07 12:04:58;;;;;;;1.13;0.50;;;;;;;;;;5034785;28;20189;-84
2022/06/07 12:07:24;;;;;;;0.40;0.40;;;;;;;;;;5022731;28;20206;-85
2022/06/07 12:09:55;;;;;;;0.65;0.50;;;;;;;;;;5022526;28;20584;-84
2022/06/07 12:12:31;;;;;;;1.50;0.50;;;;;;;;;;5023843;28;20209;-84
2022/06/07 12:15:12;;;;;;;1.45;0.40;;;;;;;;;;5022159;28;20179;-85
2022/06/07 12:17:50;;;;;;;2.25;0.65;;;;;;;;;;5021006;28;20206;-84
2022/06/07 12:20:27;;;;;;;0.57;0.40;;;;;;;;;;5024220;28;20555;-85
2022/06/07 12:22:55;;;;;;;1.30;0.50;;;;;;;;;;5037338;28;20178;-85
2022/06/07 12:25:22;;;;;;;5.55;0.80;;;;;;;;;;5023519;28;20182;-85
2022/06/07 12:27:51;;;;;;;3.45;1.33;;;;;;;;;;5027752;28;20206;-85
2022/06/07 12:30:27;;;;;;;1.05;0.70;;;;;;;;;;5008192;28;20244;-84
2022/06/07 12:32:54;;;;;;;0.45;0.40;;;;;;;;;;5024034;28;20261;-86
2022/06/07 12:35:28;;;;;;;2.47;0.90;;;;;;;;;;5023559;28;20186;-84
2022/06/07 12:37:56;;;;;;;1.42;0.60;;;;;;;;;;5023620;28;20206;-85
2022/06/07 12:40:27;;;;;;;0.98;0.55;;;;;;;;;;5021632;28;20179;-86
2022/06/07 12:42:54;;;;;;;1.30;0.55;;;;;;;;;;5033200;28;20187;-86
2022/06/07 12:45:24;;;;;;;0.73;0.40;;;;;;;;;;5032759;28;20664;-87
2022/06/07 12:47:54;;;;;;;2.70;0.52;;;;;;;;;;5033310;28;20236;-87
2022/06/07 12:50:21;;;;;;;0.50;0.30;;;;;;;;;;5033457;28;20187;-88
2022/06/07 12:52:51;;;;;;;3.92;0.65;;;;;;;;;;5024660;28;20209;-84
2022/06/07 12:55:21;;;;;;;1.85;0.50;;;;;;;;;;5027857;28;20276;-85
2022/06/07 12:57:48;;;;;;;0.70;0.50;;;;;;;;;;5024875;28;20195;-85
2022/06/07 13:00:17;;;;;;;2.30;0.47;;;;;;;;;;5035645;28;20182;-84
2022/06/07 13:02:44;;;;;;;1.10;0.40;;;;;;;;;;5011878;28;20232;-84
2022/06/07 13:05:20;;;;;;;1.42;0.43;;;;;;;;;;5025116;28;20190;-85
2022/06/07 13:07:53;;;;;;;3.95;0.50;;;;;;;;;;5015509;28;20198;-84
2022/06/07 13:10:23;;;;;;;1.13;0.30;;;;;;;;;;5027097;28;20221;-84
2022/06/07 13:12:51;;;;;;;0.43;0.40;;;;;;;;;;5026458;28;20438;-83
2022/06/07 13:15:20;;;;;;;0.60;0.60;;;;;;;;;;5026095;28;20198;-83
2022/06/07 13:17:55;;;;;;;1.13;0.43;;;;;;;;;;5023761;28;20657;-84
2022/06/07 13:20:27;;;;;;;1.98;0.50;;;;;;;;;;5036917;28;20178;-84
2022/06/07 13:22:53;;;;;;;1.13;0.50;;;;;;;;;;5024893;28;20198;-85
2022/06/07 13:25:31;;;;;;;1.40;0.55;;;;;;;;;;5016947;28;20435;-85
2022/06/07 13:28:14;;;;;;;1.05;0.43;;;;;;;;;;5039633;28;20243;-84
2022/06/07 13:30:42;;;;;;;0.70;0.40;;;;;;;;;;5026434;28;20186;-84
2022/06/07 13:33:17;;;;;;;1.27;0.40;;;;;;;;;;5029276;28;20622;-85
2022/06/07 13:35:50;;;;;;;1.55;0.60;;;;;;;;;;5027323;28;20175;-85
2022/06/07 13:38:19;;;;;;;1.67;0.57;;;;;;;;;;5027041;28;20190;-85
2022/06/07 13:40:45;;;;;;;2.35;0.60;;;;;;;;;;5026759;28;20174;-84
2022/06/07 13:43:18;;;;;;;1.88;0.63;;;;;;;;;;5029376;28;20209;-85
2022/06/07 13:45:46;;;;;;;1.88;0.60;;;;;;;;;;5024102;28;20801;-85
2022/06/07 13:48:17;;;;;;;1.13;0.40;;;;;;;;;;5029200;28;20196;-85
2022/06/07 13:53:45;;;;;;;1.00;0.50;;;;;;;;;;5029749;28;20454;-85
2022/06/07 13:56:15;;;;;;;3.30;0.80;;;;;;;;;;5027052;28;20203;-85
2022/06/07 13:58:42;;;;;;;1.23;0.40;;;;;;;;;;5027246;28;20214;-85
2022/06/07 14:01:11;;;;;;;1.40;0.70;;;;;;;;;;5023828;28;20570;-85
2022/06/07 14:03:38;;;;;;;1.00;0.68;;;;;;;;;;5023891;28;20325;-85
2022/06/07 14:06:06;;;;;;;1.60;0.57;;;;;;;;;;5026690;28;20230;-85
2022/06/07 14:08:32;;;;;;;1.45;0.50;;;;;;;;;;5023959;28;20194;-84
2022/06/07 14:10:58;;;;;;;1.35;0.52;;;;;;;;;;5014636;28;20186;-84
2022/06/07 14:13:24;;;;;;;1.02;0.43;;;;;;;;;;5023572;28;20215;-84
2022/06/07 14:15:51;;;;;;;0.80;0.50;;;;;;;;;;5031319;28;20669;-85
2022/06/07 14:18:18;;;;;;;1.83;0.75;;;;;;;;;;5012641;28;20193;-85
2022/06/07 14:20:47;;;;;;;0.95;0.50;;;;;;;;;;5035694;28;20189;-84
2022/06/07 14:23:13;;;;;;;0.77;0.40;;;;;;;;;;5026417;28;20710;-84
2022/06/07 14:25:39;;;;;;;0.70;0.43;;;;;;;;;;5033938;28;20195;-84
2022/06/07 14:28:06;;;;;;;1.20;0.70;;;;;;;;;;5026702;28;20190;-84
2022/06/07 14:30:32;;;;;;;1.30;0.57;;;;;;;;;;5023991;28;20190;-84
2022/06/07 14:33:00;;;;;;;0.82;0.43;;;;;;;;;;5030639;28;20271;-84
2022/06/07 14:35:27;;;;;;;0.47;0.45;;;;;;;;;;5024843;28;20243;-84
2022/06/07 14:37:58;;;;;;;0.90;0.50;;;;;;;;;;5029792;28;20199;-84
2022/06/07 14:40:26;;;;;;;0.82;0.82;;;;;;;;;;5012816;28;20209;-85
2022/06/07 14:42:53;;;;;;;1.38;0.60;;;;;;;;;;5040154;28;20568;-84
2022/06/07 14:45:20;;;;;;;1.88;0.55;;;;;;;;;;5032659;28;20178;-84
2022/06/07 14:47:48;;;;;;;1.25;0.50;;;;;;;;;;5022593;28;20256;-85
2022/06/07 14:50:19;;;;;;;1.23;0.52;;;;;;;;;;5037232;28;20200;-84
2022/06/07 14:52:48;;;;;;;0.80;0.60;;;;;;;;;;5032949;28;20297;-84
2022/06/07 14:55:16;;;;;;;0.85;0.80;;;;;;;;;;5031832;28;20268;-84
2022/06/07 14:57:43;;;;;;;1.20;0.50;;;;;;;;;;5025504;28;20205;-83
2022/06/07 15:00:13;;;;;;;0.75;0.60;;;;;;;;;;5022823;28;20186;-83
2022/06/07 15:02:40;;;;;;;0.90;0.50;;;;;;;;;;5032620;28;20261;-85
2022/06/07 15:05:12;;;;;;;0.63;0.52;;;;;;;;;;5023644;28;20645;-87
2022/06/07 15:07:50;;;;;;;1.55;0.50;;;;;;;;;;5023841;28;20225;-86
2022/06/07 15:10:18;;;;;;;0.47;0.47;;;;;;;;;;5022395;28;20301;-84
2022/06/07 15:12:44;;;;;;;1.15;0.57;;;;;;;;;;5030761;28;20774;-84
2022/06/07 15:15:10;;;;;;;0.80;0.50;;;;;;;;;;5032301;28;20396;-86
2022/06/07 15:17:39;;;;;;;1.73;0.90;;;;;;;;;;5023276;28;20195;-83